createdAt,value
2023-05-08T00:02:07.604Z,3.65
2023-05-08T00:07:11.874Z,3.56
2023-05-08T00:12:14.722Z,3.44
2023-05-08T00:17:17.514Z,3.39
2023-05-08T00:22:20.362Z,3.19
2023-05-08T00:27:23.153Z,3.08
2023-05-08T00:32:26.052Z,3.14
2023-05-08T00:37:28.996Z,3.09
2023-05-08T00:42:31.815Z,3.03
2023-05-08T00:47:34.895Z,2.97
2023-05-08T00:52:38.620Z,2.94
2023-05-08T00:57:41.630Z,2.95
2023-05-08T01:02:45.980Z,2.78
2023-05-08T01:07:49.155Z,2.63
2023-05-08T01:13:51.589Z,2.63
2023-05-08T01:19:13.040Z,2.49
2023-05-08T01:24:37.639Z,2.41
2023-05-08T01:30:23.714Z,2.34
2023-05-08T01:36:23.575Z,2.22
2023-05-08T01:41:30.029Z,2.12
2023-05-08T01:46:34.464Z,2.09
2023-05-08T01:51:55.950Z,2.09
2023-05-08T01:57:02.544Z,1.93
2023-05-08T02:02:07.031Z,1.76
2023-05-08T02:07:10.364Z,1.79
2023-05-08T02:12:16.444Z,1.71
2023-05-08T02:17:21.107Z,1.75
2023-05-08T02:22:25.333Z,1.71
2023-05-08T02:27:30.508Z,1.90
2023-05-08T02:32:34.913Z,1.91
2023-05-08T02:37:39.392Z,1.85
2023-05-08T02:42:43.535Z,1.96
2023-05-08T02:48:12.127Z,2.06
2023-05-08T02:53:42.196Z,2.19
2023-05-08T02:58:58.678Z,2.01
2023-05-08T03:04:21.283Z,1.80
2023-05-08T03:09:31.955Z,1.73
2023-05-08T03:14:44.391Z,2.04
2023-05-08T03:19:52.419Z,2.63
2023-05-08T03:25:00.236Z,2.88
2023-05-08T03:30:06.244Z,3.06
2023-05-08T03:35:10.182Z,3.51
2023-05-08T03:40:13.724Z,4.16
2023-05-08T03:45:17.543Z,4.79
2023-05-08T03:50:20.686Z,5.31
2023-05-08T03:55:23.534Z,5.74
2023-05-08T04:00:34.197Z,6.23
2023-05-08T04:05:48.006Z,6.69
2023-05-08T04:11:17.538Z,7.10
2023-05-08T04:16:25.455Z,7.50
2023-05-08T04:21:31.985Z,7.92
2023-05-08T04:26:35.234Z,8.11
2023-05-08T04:31:40.404Z,8.30
2023-05-08T04:36:43.578Z,8.51
2023-05-08T04:41:48.144Z,8.86
2023-05-08T04:46:51.110Z,9.21
2023-05-08T04:51:58.462Z,9.55
2023-05-08T04:57:01.402Z,9.88
2023-05-08T05:02:10.189Z,9.90
2023-05-08T05:07:13.096Z,10.21
2023-05-08T05:12:16.535Z,10.43
2023-05-08T05:17:19.411Z,10.66
2023-05-08T05:22:22.223Z,10.86
2023-05-08T05:27:25.163Z,11.12
2023-05-08T05:32:28.398Z,11.56
2023-05-08T05:37:31.356Z,12.03
2023-05-08T05:42:34.222Z,12.35
2023-05-08T05:47:37.136Z,12.73
2023-05-08T05:52:40.012Z,12.98
2023-05-08T05:57:42.969Z,13.27
2023-05-08T06:02:46.122Z,13.92
2023-05-08T06:07:49.532Z,14.36
2023-05-08T06:12:53.483Z,15.18
2023-05-08T06:17:56.464Z,15.62
2023-05-08T06:22:59.400Z,16.04
2023-05-08T06:28:02.304Z,16.28
2023-05-08T06:33:05.446Z,16.08
2023-05-08T06:38:08.370Z,16.31
2023-05-08T06:43:12.362Z,16.18
2023-05-08T06:48:15.503Z,16.13
2023-05-08T06:53:18.370Z,16.08
2023-05-08T06:58:21.330Z,16.18
2023-05-08T07:03:24.312Z,16.71
2023-05-08T07:08:27.242Z,17.17
2023-05-08T07:13:30.500Z,16.93
2023-05-08T07:18:33.388Z,16.73
2023-05-08T07:23:36.896Z,16.79
2023-05-08T07:28:39.769Z,16.87
2023-05-08T07:33:42.995Z,17.21
2023-05-08T07:38:45.962Z,17.93
2023-05-08T07:43:48.846Z,18.46
2023-05-08T07:48:51.723Z,18.77
2023-05-08T07:53:55.207Z,18.78
2023-05-08T07:58:58.040Z,18.57
2023-05-08T08:04:01.093Z,18.81
2023-05-08T08:09:04.049Z,18.82
2023-05-08T08:14:06.962Z,18.76
2023-05-08T08:19:10.938Z,17.49
2023-05-08T08:24:14.032Z,18.03
2023-05-08T08:29:17.459Z,18.46
2023-05-08T08:34:20.540Z,18.38
2023-05-08T08:39:25.870Z,18.77
2023-05-08T08:44:28.782Z,19.27
2023-05-08T08:49:36.244Z,19.75
2023-05-08T08:54:41.452Z,19.72
2023-05-08T08:59:45.118Z,19.05
2023-05-08T09:04:50.116Z,18.26
2023-05-08T09:09:53.473Z,17.80
2023-05-08T09:14:56.408Z,17.64
2023-05-08T09:19:59.526Z,17.33
2023-05-08T09:25:03.395Z,18.20
2023-05-08T09:30:08.537Z,18.78
2023-05-08T09:35:12.800Z,19.29
2023-05-08T09:40:22.314Z,18.84
2023-05-08T09:45:32.034Z,18.35
2023-05-08T09:50:35.175Z,18.17
2023-05-08T09:55:48.733Z,18.74
2023-05-08T10:00:51.659Z,18.86
2023-05-08T10:05:54.614Z,18.37
2023-05-08T10:11:15.385Z,18.20
2023-05-08T10:16:18.941Z,18.82
2023-05-08T10:21:22.229Z,19.25
2023-05-08T10:26:32.023Z,19.14
2023-05-08T10:31:36.752Z,18.71
2023-05-08T10:36:40.951Z,18.99
2023-05-08T10:41:43.957Z,18.62
2023-05-08T10:46:58.229Z,18.71
2023-05-08T10:52:18.579Z,18.85
2023-05-08T10:57:21.611Z,19.29
2023-05-08T11:02:30.476Z,19.58
2023-05-08T11:07:55.698Z,19.94
2023-05-08T11:13:01.197Z,20.23
2023-05-08T11:18:09.059Z,20.31
2023-05-08T11:23:29.671Z,20.30
2023-05-08T11:28:40.290Z,20.43
2023-05-08T11:33:43.220Z,20.35
2023-05-08T11:39:07.792Z,20.25
2023-05-08T11:44:22.678Z,20.57
2023-05-08T11:49:29.862Z,20.85
2023-05-08T11:54:33.639Z,20.60
2023-05-08T11:59:37.357Z,20.17
2023-05-08T12:04:45.692Z,19.44
2023-05-08T12:09:48.874Z,19.31
2023-05-08T12:14:52.206Z,19.53
2023-05-08T12:19:56.545Z,20.01
2023-05-08T12:24:59.488Z,20.79
2023-05-08T12:30:10.742Z,21.34
2023-05-08T12:35:14.702Z,21.20
2023-05-08T12:40:34.616Z,21.12
2023-05-08T12:45:40.490Z,21.28
2023-05-08T12:50:45.939Z,21.77
2023-05-08T12:56:02.778Z,22.12
2023-05-08T13:01:12.047Z,22.39
2023-05-08T13:06:22.406Z,22.48
2023-05-08T13:11:34.341Z,22.66
2023-05-08T13:16:45.467Z,22.89
2023-05-08T13:21:49.526Z,22.71
2023-05-08T13:26:52.617Z,21.42
2023-05-08T13:31:55.468Z,20.88
2023-05-08T13:36:58.480Z,20.80
2023-05-08T13:42:01.260Z,21.02
2023-05-08T13:47:04.205Z,20.97
2023-05-08T13:52:08.038Z,21.05
2023-05-08T13:57:11.462Z,21.26
2023-05-08T14:02:14.664Z,21.51
2023-05-08T14:07:18.580Z,21.22
2023-05-08T14:12:21.577Z,20.97
2023-05-08T14:17:24.404Z,21.22
2023-05-08T14:22:27.298Z,21.80
2023-05-08T14:27:30.277Z,21.76
2023-05-08T14:32:33.128Z,21.42
2023-05-08T14:37:36.202Z,21.74
2023-05-08T14:42:39.068Z,21.98
2023-05-08T14:47:42.412Z,22.03
2023-05-08T14:52:45.452Z,22.19
2023-05-08T14:57:48.304Z,21.66
2023-05-08T15:02:51.298Z,21.13
2023-05-08T15:07:54.263Z,21.54
2023-05-08T15:12:57.248Z,21.95
2023-05-08T15:18:00.260Z,21.98
2023-05-08T15:23:03.443Z,21.69
2023-05-08T15:28:06.290Z,21.44
2023-05-08T15:33:09.968Z,20.95
2023-05-08T15:38:13.177Z,20.41
2023-05-08T15:43:16.028Z,19.73
2023-05-08T15:48:18.936Z,19.53
2023-05-08T15:53:22.129Z,19.44
2023-05-08T15:58:25.193Z,19.42
2023-05-08T16:03:28.296Z,20.07
2023-05-08T16:08:31.500Z,20.07
2023-05-08T16:13:34.451Z,19.85
2023-05-08T16:18:37.508Z,19.68
2023-05-08T16:23:40.676Z,19.58
2023-05-08T16:28:43.696Z,19.00
2023-05-08T16:33:46.571Z,18.77
2023-05-08T16:38:49.441Z,19.10
2023-05-08T16:43:52.294Z,19.40
2023-05-08T16:48:55.163Z,19.68
2023-05-08T16:53:58.205Z,19.93
2023-05-08T16:59:05.978Z,20.00
2023-05-08T17:04:09.151Z,19.83
2023-05-08T17:09:12.064Z,19.47
2023-05-08T17:14:14.945Z,19.30
2023-05-08T17:19:18.066Z,19.13
2023-05-08T17:24:21.017Z,19.03
2023-05-08T17:29:24.226Z,18.85
2023-05-08T17:34:27.238Z,18.73
2023-05-08T17:39:30.551Z,18.61
2023-05-08T17:44:33.513Z,18.50
2023-05-08T17:49:36.354Z,18.63
2023-05-08T17:54:39.269Z,18.28
2023-05-08T17:59:42.117Z,18.01
2023-05-08T18:04:44.967Z,17.87
2023-05-08T18:09:47.854Z,17.63
2023-05-08T18:14:51.065Z,17.27
2023-05-08T18:19:53.964Z,16.66
2023-05-08T18:24:57.353Z,15.85
2023-05-08T18:30:00.512Z,15.10
2023-05-08T18:35:03.811Z,14.40
2023-05-08T18:40:07.759Z,13.74
2023-05-08T18:45:11.570Z,13.23
2023-05-08T18:50:14.969Z,12.90
2023-05-08T18:55:18.103Z,12.70
2023-05-08T19:00:21.467Z,12.49
2023-05-08T19:05:24.717Z,12.10
2023-05-08T19:10:27.736Z,11.77
2023-05-08T19:15:30.715Z,11.45
2023-05-08T19:20:33.733Z,11.14
2023-05-08T19:25:36.736Z,10.82
2023-05-08T19:30:40.060Z,10.66
2023-05-08T19:35:43.113Z,10.71
2023-05-08T19:40:56.246Z,10.82
2023-05-08T19:46:00.301Z,11.00
2023-05-08T19:51:08.381Z,11.05
2023-05-08T19:56:11.301Z,11.04
2023-05-08T20:01:14.192Z,11.02
2023-05-08T20:06:17.318Z,11.02
2023-05-08T20:11:21.163Z,11.00
2023-05-08T20:16:24.331Z,10.87
2023-05-08T20:21:32.416Z,10.67
2023-05-08T20:26:35.813Z,10.53
2023-05-08T20:31:41.145Z,10.44
2023-05-08T20:36:45.424Z,10.36
2023-05-08T20:41:48.341Z,10.27
2023-05-08T20:46:51.860Z,10.17
2023-05-08T20:51:54.951Z,10.06
2023-05-08T20:56:58.876Z,9.94
2023-05-08T21:02:01.852Z,9.78
2023-05-08T21:07:04.997Z,9.63
2023-05-08T21:12:07.870Z,9.51
2023-05-08T21:17:10.879Z,9.43
2023-05-08T21:22:13.969Z,9.37
2023-05-08T21:27:16.858Z,9.31
2023-05-08T21:32:19.731Z,9.25
2023-05-08T21:37:22.661Z,9.12
2023-05-08T21:42:25.502Z,8.82
2023-05-08T21:47:28.502Z,8.56
2023-05-08T21:52:31.567Z,8.34
2023-05-08T21:57:37.482Z,8.09
2023-05-08T22:02:40.505Z,7.85
2023-05-08T22:07:43.378Z,7.70
2023-05-08T22:12:46.297Z,7.57
2023-05-08T22:17:50.701Z,7.52
2023-05-08T22:22:53.625Z,7.35
2023-05-08T22:27:56.473Z,7.25
2023-05-08T22:33:00.200Z,7.09
2023-05-08T22:38:03.246Z,6.89
2023-05-08T22:43:06.591Z,6.73
2023-05-08T22:48:10.535Z,6.77
2023-05-08T22:53:13.605Z,6.84
2023-05-08T22:58:19.492Z,6.84
2023-05-08T23:03:22.530Z,6.63
2023-05-08T23:08:25.532Z,6.54
2023-05-08T23:13:28.448Z,6.57
2023-05-08T23:18:31.545Z,6.42
2023-05-08T23:23:35.889Z,6.11
2023-05-08T23:28:38.853Z,5.95
2023-05-08T23:33:41.688Z,5.91
2023-05-08T23:38:44.586Z,5.91
2023-05-08T23:43:47.403Z,5.87
2023-05-08T23:48:50.401Z,5.86
2023-05-08T23:53:53.206Z,5.84
2023-05-08T23:58:56.199Z,5.78
